Bei Facebook empfehlenBei Twitter postenGoogle plusPinterest

Das Wetter im Erzgebirge am 12.01.2015

Wetter und Klima am 12.01.2015 Holzhau im Erzgebirge (630m ü.NN)
Letzte gemessene Temperatur und Uhrzeit der Messung23:45:00 Uhr3.00 °C
Temperatur (Maximum / Höchstwert) und Uhrzeit der Messung22:45:00 Uhr3.20 °C
Temperatur (Minimum / Tiefstwert) und Uhrzeit der Messung01:00:00-0.40 °C
Errechneter Absolutwert der Temperaturschwankungen zwischen Tmin und Tmax des Tages3.60 K
Errechnete Tagesmitteltemperatur1.75833 °C
Gesamt - Niederschlag des Tages (in flüssiger Form)5.18 Liter / m²
Luftdruck (Maximum / Höchstwert) und Zeitpunkt der Messung09:30:00 Uhr1015.30 hPa
Luftdruck (Minimum / Tiefstwert) und Zeitpunkt der Messung00:00:00 Uhr1012.20 hPa
Errechneter Absolutwert der Luftdruckschwankungen des Tages3.10 hPa
Höchste gemessene Windgeschwindigkeit und Uhrzeit der Messung09:00:00 Uhr12.60 km/h
Errechnete Windhäufigkeit in Relation zu den Messwerten des Tages25.00000 %
Niedrigste Windkühle (Windchill) und Zeitpunkt der Messung09:00:00 Uhr-2.50 °C
Taupunkt (Maximum / Höchstwert) und Uhrzeit der Messung13:45:00 Uhr1.10 °C
Taupunkt (Minimum / Tiefstwert) und Uhrzeit der Messung01:00:00-1.50 °C
Anzahl der automatisch eingelesenen Messwerte 96

Detaillierte Wetter- und Klima- Messwerte für den 12.01.2015 in Holzhau im Erzgebirge (630m ü.NN)
ZeitTemperaturLuftdruckRel. LuftfeuchteWindWindrichtungWindchillTaupunktNiederschlag l/m²
23:45:003.00 °C1012.90 hPa86.00 %0.90 °C5.18
23:30:003.00 °C1013.10 hPa86.00 %0.90 °C5.18
23:15:003.00 °C1013.00 hPa85.00 %0.70 °C5.18
23:00:003.10 °C1013.40 hPa85.00 %0.80 °C5.18
22:45:003.20 °C1013.60 hPa85.00 %0.90 °C5.18
22:30:003.10 °C1013.60 hPa85.00 %0.80 °C5.18
22:15:003.00 °C1013.70 hPa84.00 %0.60 °C5.18
22:00:003.00 °C1013.70 hPa84.00 %7.92 km/hW0.80 °C0.60 °C5.18
21:45:003.10 °C1014.00 hPa84.00 %0.70 °C5.18
21:30:002.90 °C1014.00 hPa84.00 %3.60 km/hWNW2.90 °C0.50 °C5.18
21:15:002.80 °C1013.90 hPa84.00 %10.44 km/hWNW-0.10 °C0.40 °C5.18
21:00:002.80 °C1013.50 hPa84.00 %0.40 °C5.18
20:45:002.80 °C1013.50 hPa83.00 %0.20 °C5.18
20:30:002.90 °C1013.60 hPa83.00 %0.30 °C5.18
20:15:002.90 °C1013.60 hPa83.00 %0.30 °C5.18
20:00:002.80 °C1013.70 hPa83.00 %7.56 km/hWSW0.70 °C0.20 °C5.18
19:45:002.80 °C1013.70 hPa83.00 %0.20 °C5.18
19:30:002.80 °C1013.70 hPa83.00 %5.76 km/hWNW1.30 °C0.20 °C5.18
19:15:002.80 °C1013.70 hPa83.00 %6.84 km/hW0.90 °C0.20 °C5.18
19:00:002.80 °C1013.80 hPa83.00 %8.28 km/hW0.50 °C0.20 °C5.18
18:45:002.80 °C1013.90 hPa83.00 %0.20 °C5.18
18:30:002.60 °C1013.70 hPa83.00 %9.00 km/hN0.00 °C0.00 °C5.18
18:15:002.60 °C1013.80 hPa84.00 %11.16 km/hWSW-0.50 °C0.20 °C5.18
18:00:002.60 °C1013.80 hPa84.00 %7.56 km/hWSW0.40 °C0.20 °C5.18
17:45:002.60 °C1013.90 hPa84.00 %8.28 km/hWSW0.20 °C0.20 °C5.18
17:30:002.60 °C1014.00 hPa84.00 %2.52 km/hSSW2.60 °C0.20 °C5.18
17:15:002.60 °C1013.80 hPa84.00 %0.20 °C5.18
17:00:002.60 °C1013.80 hPa84.00 %0.20 °C5.18
16:45:002.50 °C1013.90 hPa86.00 %10.80 km/hWNW-0.50 °C0.40 °C5.18
16:30:002.50 °C1013.70 hPa86.00 %0.40 °C5.18
16:15:002.50 °C1013.90 hPa86.00 %12.24 km/hNW-0.80 °C0.40 °C5.18
16:00:002.60 °C1013.60 hPa86.00 %0.50 °C5.18
15:45:002.60 °C1013.60 hPa86.00 %0.50 °C5.18
15:30:002.60 °C1013.90 hPa86.00 %0.50 °C5.18
15:15:002.70 °C1013.70 hPa86.00 %0.60 °C4.66
15:00:002.80 °C1013.50 hPa86.00 %0.70 °C4.66
14:45:002.70 °C1013.40 hPa87.00 %0.80 °C4.66
14:30:002.80 °C1013.60 hPa87.00 %0.90 °C4.66
14:15:002.90 °C1013.40 hPa87.00 %1.00 °C4.66
14:00:002.80 °C1013.60 hPa88.00 %1.00 °C4.14
13:45:002.70 °C1013.60 hPa89.00 %1.10 °C4.14
13:30:002.60 °C1013.80 hPa88.00 %10.08 km/hSW-0.20 °C0.80 °C4.14
13:15:002.60 °C1013.90 hPa88.00 %0.80 °C3.62
13:00:002.60 °C1014.00 hPa89.00 %5.04 km/hW1.30 °C1.00 °C3.62
12:45:002.60 °C1014.30 hPa89.00 %4.68 km/hWSW2.60 °C1.00 °C3.62
12:30:002.50 °C1014.70 hPa89.00 %0.90 °C3.11
12:15:002.50 °C1014.50 hPa89.00 %0.90 °C3.11
12:00:002.50 °C1014.50 hPa89.00 %0.90 °C2.59
11:45:002.60 °C1014.50 hPa90.00 %1.10 °C2.59
11:30:002.40 °C1014.50 hPa90.00 %0.90 °C2.07
11:15:002.40 °C1014.50 hPa90.00 %9.72 km/hWNW-0.40 °C0.90 °C2.07
11:00:002.40 °C1014.50 hPa90.00 %8.64 km/hWNW-0.10 °C0.90 °C1.55
10:45:002.30 °C1014.60 hPa91.00 %1.00 °C0.52
10:30:002.10 °C1014.50 hPa91.00 %0.80 °C 
10:15:001.90 °C1014.50 hPa92.00 %0.70 °C 
10:00:001.80 °C1014.70 hPa92.00 %0.60 °C 
09:45:001.50 °C1015.20 hPa92.00 %6.12 km/hW-0.30 °C0.30 °C 
09:30:001.40 °C1015.30 hPa92.00 %0.20 °C 
09:15:001.30 °C1015.20 hPa92.00 %0.10 °C 
09:00:001.20 °C1015.20 hPa92.00 %12.60 km/hWSW-2.50 °C0.00 °C 
08:45:001.20 °C1015.20 hPa91.00 %-0.10 °C 
08:30:001.30 °C1015.10 hPa91.00 %0.00 °C 
08:15:001.10 °C1015.00 hPa91.00 %-0.20 °C 
08:00:001.00 °C1014.80 hPa92.00 %10.80 km/hSSW-2.30 °C-0.10 °C 
07:45:000.90 °C1014.90 hPa92.00 %5.40 km/hWSW-0.70 °C-0.20 °C 
07:30:000.80 °C1014.70 hPa92.00 %3.96 km/hWSW0.80 °C-0.30 °C 
07:15:000.60 °C1014.70 hPa93.00 %-0.40 °C 
07:00:000.60 °C1014.70 hPa93.00 %-0.40 °C 
06:45:000.60 °C1014.50 hPa93.00 %-0.40 °C 
06:30:000.60 °C1014.50 hPa93.00 %-0.40 °C 
06:15:000.50 °C1014.70 hPa93.00 %-0.50 °C 
06:00:000.40 °C1014.70 hPa93.00 %-0.60 °C 
05:45:000.40 °C1014.80 hPa93.00 %-0.60 °C 
05:30:000.40 °C1014.80 hPa93.00 %-0.60 °C 
05:15:000.40 °C1014.80 hPa92.00 %-0.70 °C 
05:00:000.40 °C1015.00 hPa92.00 %-0.70 °C 
04:45:000.40 °C1015.00 hPa92.00 %-0.70 °C 
04:30:000.40 °C1015.00 hPa92.00 %-0.70 °C 
04:15:000.50 °C1014.90 hPa92.00 %-0.60 °C 
04:00:000.40 °C1014.70 hPa92.00 %-0.70 °C 
03:45:000.40 °C1014.50 hPa93.00 %-0.60 °C 
03:30:000.40 °C1014.40 hPa93.00 %-0.60 °C 
03:15:000.40 °C1014.30 hPa93.00 %-0.60 °C 
03:00:000.40 °C1014.20 hPa93.00 %-0.60 °C 
02:45:000.40 °C1014.00 hPa93.00 %-0.60 °C 
02:30:000.30 °C1013.60 hPa93.00 %-0.70 °C 
02:15:000.20 °C1013.40 hPa93.00 %-0.80 °C 
02:00:000.10 °C1013.10 hPa93.00 %-0.90 °C 
01:45:000.10 °C1012.80 hPa93.00 %-0.90 °C 
01:30:00-0.10 °C1012.80 hPa93.00 %-1.20 °C 
01:15:00-0.20 °C1012.70 hPa93.00 %-1.30 °C 
01:00:00-0.40 °C1012.70 hPa93.00 %-1.50 °C 
00:45:00-0.40 °C1012.70 hPa93.00 %-1.50 °C 
00:30:00-0.40 °C1012.40 hPa93.00 %-1.50 °C 
00:15:00-0.40 °C1012.30 hPa93.00 %-1.50 °C 
00:00:00-0.40 °C1012.20 hPa93.00 %-1.50 °C 

Permanenter Link zu dieser Seite: Wetter im Erzgebirge am 12.01.2015
Performance-Info: Die Erstellung der Seite / Statistik(en) / Tabelle(n) erforderte 5 Datenbankserver-Abfrage(n) und dauerte 121 Millisekunden. (Dieser Messwert ist von der Gesamt-Auslastung des Servers abhängig.)
Erzgebirge - Wetter | Erzgebirge - Wetter (Mobilgeräte) | Komplette Klimadatenbank